createdAt,value
2023-07-26T00:01:50.505Z,12.10
2023-07-26T00:04:17.493Z,12.20
2023-07-26T00:06:44.436Z,12.10
2023-07-26T00:09:11.517Z,12.10
2023-07-26T00:11:38.637Z,12.10
2023-07-26T00:14:06.692Z,12.10
2023-07-26T00:16:34.784Z,12.10
2023-07-26T00:19:02.471Z,12.10
2023-07-26T00:21:29.816Z,12.10
2023-07-26T00:23:56.929Z,12.10
2023-07-26T00:26:23.905Z,12.10
2023-07-26T00:28:50.851Z,12.10
2023-07-26T00:31:18.025Z,12.00
2023-07-26T00:33:46.530Z,12.00
2023-07-26T00:36:13.494Z,12.00
2023-07-26T00:38:40.493Z,12.00
2023-07-26T00:41:08.277Z,12.00
2023-07-26T00:43:35.454Z,12.00
2023-07-26T00:46:04.475Z,12.00
2023-07-26T00:48:32.758Z,12.00
2023-07-26T00:51:01.846Z,11.90
2023-07-26T00:53:29.738Z,11.90
2023-07-26T00:55:59.568Z,11.90
2023-07-26T00:58:26.923Z,11.90
2023-07-26T01:00:56.221Z,11.90
2023-07-26T01:03:23.573Z,11.80
2023-07-26T01:06:15.840Z,11.80
2023-07-26T01:09:03.748Z,11.80
2023-07-26T01:11:39.378Z,11.80
2023-07-26T01:14:21.377Z,11.80
2023-07-26T01:16:48.805Z,11.80
2023-07-26T01:19:15.821Z,11.80
2023-07-26T01:21:42.878Z,11.70
2023-07-26T01:24:09.862Z,11.70
2023-07-26T01:26:36.880Z,11.70
2023-07-26T01:29:03.827Z,11.70
2023-07-26T01:31:31.386Z,11.60
2023-07-26T01:34:00.589Z,11.60
2023-07-26T01:36:30.858Z,11.60
2023-07-26T01:38:58.515Z,11.60
2023-07-26T01:41:26.646Z,11.50
2023-07-26T01:43:53.563Z,11.50
2023-07-26T01:46:20.543Z,11.50
2023-07-26T01:48:47.562Z,11.50
2023-07-26T01:51:14.518Z,11.40
2023-07-26T01:53:41.487Z,11.40
2023-07-26T01:56:08.483Z,11.40
2023-07-26T01:58:35.663Z,11.40
2023-07-26T02:01:04.616Z,11.40
2023-07-26T02:03:31.618Z,11.30
2023-07-26T02:05:58.570Z,11.30
2023-07-26T02:08:25.530Z,11.30
2023-07-26T02:10:52.523Z,11.40
2023-07-26T02:13:19.576Z,11.30
2023-07-26T02:15:47.783Z,11.30
2023-07-26T02:18:14.709Z,11.30
2023-07-26T02:20:41.681Z,11.30
2023-07-26T02:23:08.651Z,11.30
2023-07-26T02:25:35.689Z,11.40
2023-07-26T02:28:02.702Z,11.30
2023-07-26T02:30:29.627Z,11.30
2023-07-26T02:32:56.701Z,11.30
2023-07-26T02:35:23.668Z,11.30
2023-07-26T02:37:50.666Z,11.30
2023-07-26T02:40:18.568Z,11.30
2023-07-26T02:42:45.625Z,11.30
2023-07-26T02:45:12.568Z,11.30
2023-07-26T02:47:39.639Z,11.30
2023-07-26T02:50:06.853Z,11.30
2023-07-26T02:52:34.946Z,11.30
2023-07-26T02:55:02.038Z,11.30
2023-07-26T02:57:29.118Z,11.30
2023-07-26T02:59:56.086Z,11.30
2023-07-26T03:02:23.611Z,11.40
2023-07-26T03:04:50.846Z,11.40
2023-07-26T03:07:17.718Z,11.40
2023-07-26T03:09:44.717Z,11.40
2023-07-26T03:12:11.637Z,11.40
2023-07-26T03:14:42.004Z,11.40
2023-07-26T03:17:22.321Z,11.40
2023-07-26T03:19:50.323Z,11.40
2023-07-26T03:22:17.460Z,11.40
2023-07-26T03:24:44.700Z,11.40
2023-07-26T03:27:11.842Z,11.40
2023-07-26T03:29:38.810Z,11.30
2023-07-26T03:32:06.302Z,11.30
2023-07-26T03:34:33.522Z,11.30
2023-07-26T03:37:01.972Z,11.30
2023-07-26T03:39:28.937Z,11.30
2023-07-26T03:41:55.918Z,11.30
2023-07-26T03:44:22.803Z,11.30
2023-07-26T03:46:50.352Z,11.30
2023-07-26T03:49:17.287Z,11.30
2023-07-26T03:51:44.490Z,11.30
2023-07-26T03:54:12.255Z,11.30
2023-07-26T03:56:39.169Z,11.30
2023-07-26T03:59:06.104Z,11.30
2023-07-26T04:01:33.101Z,11.30
2023-07-26T04:04:00.124Z,11.30
2023-07-26T04:06:27.108Z,11.30
2023-07-26T04:08:54.049Z,11.20
2023-07-26T04:11:21.050Z,11.20
2023-07-26T04:13:48.006Z,11.10
2023-07-26T04:16:19.016Z,11.10
2023-07-26T04:18:46.271Z,11.10
2023-07-26T04:21:17.884Z,11.10
2023-07-26T04:23:46.009Z,11.10
2023-07-26T04:26:13.215Z,11.10
2023-07-26T04:28:40.347Z,11.10
2023-07-26T04:31:07.330Z,11.10
2023-07-26T04:33:34.480Z,11.10
2023-07-26T04:36:01.602Z,11.10
2023-07-26T04:38:28.661Z,11.20
2023-07-26T04:40:55.650Z,11.20
2023-07-26T04:43:22.739Z,11.20
2023-07-26T04:45:51.026Z,11.20
2023-07-26T04:48:18.792Z,11.20
2023-07-26T04:50:47.423Z,11.20
2023-07-26T04:53:14.426Z,11.30
2023-07-26T04:55:43.649Z,11.20
2023-07-26T04:58:10.596Z,11.20
2023-07-26T05:00:41.769Z,11.20
2023-07-26T05:03:11.026Z,11.20
2023-07-26T05:05:38.770Z,11.20
2023-07-26T05:08:06.916Z,11.20
2023-07-26T05:10:33.936Z,11.20
2023-07-26T05:13:00.963Z,11.30
2023-07-26T05:15:27.898Z,11.30
2023-07-26T05:17:54.938Z,11.30
2023-07-26T05:20:21.903Z,11.40
2023-07-26T05:22:48.873Z,11.40
2023-07-26T05:25:15.705Z,11.40
2023-07-26T05:27:42.588Z,11.40
2023-07-26T05:30:09.814Z,11.50
2023-07-26T05:32:36.790Z,11.50
2023-07-26T05:35:04.238Z,11.60
2023-07-26T05:37:35.802Z,11.60
2023-07-26T05:40:04.096Z,11.70
2023-07-26T05:42:31.089Z,11.70
2023-07-26T05:44:58.181Z,11.80
2023-07-26T05:47:25.659Z,11.80
2023-07-26T05:49:52.632Z,11.80
2023-07-26T05:52:19.910Z,11.90
2023-07-26T05:54:46.934Z,11.90
2023-07-26T05:57:13.792Z,11.90
2023-07-26T05:59:40.768Z,12.00
2023-07-26T06:02:09.060Z,12.20
2023-07-26T06:04:36.705Z,12.20
2023-07-26T06:07:06.206Z,12.30
2023-07-26T06:09:35.381Z,12.30
2023-07-26T06:12:02.998Z,12.40
2023-07-26T06:14:30.535Z,12.40
2023-07-26T06:16:57.847Z,12.30
2023-07-26T06:19:25.043Z,12.30
2023-07-26T06:21:56.859Z,12.30
2023-07-26T06:24:25.000Z,12.30
2023-07-26T06:26:53.072Z,12.30
2023-07-26T06:29:20.774Z,12.30
2023-07-26T06:31:48.865Z,12.30
2023-07-26T06:34:16.204Z,12.40
2023-07-26T06:36:43.184Z,12.50
2023-07-26T06:39:10.207Z,12.50
2023-07-26T06:41:37.255Z,12.60
2023-07-26T06:44:04.205Z,12.60
2023-07-26T06:46:31.237Z,12.60
2023-07-26T06:48:58.204Z,12.60
2023-07-26T06:51:25.084Z,12.50
2023-07-26T06:53:52.005Z,12.50
2023-07-26T06:56:18.966Z,12.50
2023-07-26T06:58:45.879Z,12.50
2023-07-26T07:01:18.962Z,12.60
2023-07-26T07:03:46.421Z,12.60
2023-07-26T07:06:15.119Z,12.70
2023-07-26T07:08:42.013Z,12.70
2023-07-26T07:11:08.987Z,12.80
2023-07-26T07:13:37.342Z,12.80
2023-07-26T07:16:05.434Z,12.80
2023-07-26T07:18:33.339Z,12.90
2023-07-26T07:21:02.188Z,13.00
2023-07-26T07:23:31.012Z,13.00
2023-07-26T07:25:58.324Z,13.00
2023-07-26T07:28:25.565Z,13.10
2023-07-26T07:30:52.869Z,13.20
2023-07-26T07:33:20.103Z,13.20
2023-07-26T07:35:47.845Z,13.30
2023-07-26T07:38:15.034Z,13.30
2023-07-26T07:40:41.956Z,13.50
2023-07-26T07:43:08.882Z,13.80
2023-07-26T07:45:42.671Z,14.00
2023-07-26T07:48:10.067Z,14.00
2023-07-26T07:50:37.693Z,14.00
2023-07-26T07:53:05.689Z,14.00
2023-07-26T07:55:32.894Z,14.00
2023-07-26T07:58:02.150Z,14.10
2023-07-26T08:00:29.453Z,14.10
2023-07-26T08:02:56.619Z,14.10
2023-07-26T08:05:26.151Z,14.10
2023-07-26T08:07:53.957Z,14.00
2023-07-26T08:10:21.546Z,14.00
2023-07-26T08:12:48.629Z,14.00
2023-07-26T08:15:15.641Z,14.10
2023-07-26T08:17:42.723Z,14.30
2023-07-26T08:20:10.494Z,14.50
2023-07-26T08:22:37.379Z,14.70
2023-07-26T08:25:05.178Z,14.80
2023-07-26T08:27:32.705Z,15.00
2023-07-26T08:29:59.663Z,15.10
2023-07-26T08:32:26.610Z,15.30
2023-07-26T08:34:53.645Z,15.60
2023-07-26T08:37:20.639Z,15.60
2023-07-26T08:39:47.518Z,15.50
2023-07-26T08:42:14.728Z,15.40
2023-07-26T08:44:43.195Z,15.20
2023-07-26T08:47:11.542Z,15.10
2023-07-26T08:49:39.065Z,15.20
2023-07-26T08:52:07.196Z,15.00
2023-07-26T08:54:34.338Z,15.10
2023-07-26T08:57:01.617Z,15.10
2023-07-26T08:59:28.601Z,15.10
2023-07-26T09:02:03.836Z,15.10
2023-07-26T09:04:34.968Z,15.00
2023-07-26T09:07:03.429Z,14.80
2023-07-26T09:09:34.270Z,14.50
2023-07-26T09:12:02.634Z,14.30
2023-07-26T09:14:32.642Z,14.10
2023-07-26T09:17:02.738Z,13.80
2023-07-26T09:19:35.025Z,13.50
2023-07-26T09:22:04.251Z,13.30
2023-07-26T09:24:34.440Z,13.20
2023-07-26T09:27:12.267Z,13.10
2023-07-26T09:29:41.703Z,13.20
2023-07-26T09:32:09.425Z,13.30
2023-07-26T09:34:36.683Z,13.30
2023-07-26T09:37:03.974Z,13.40
2023-07-26T09:39:33.346Z,13.60
2023-07-26T09:42:09.885Z,14.00
2023-07-26T09:44:37.855Z,14.40
2023-07-26T09:47:05.744Z,14.70
2023-07-26T09:49:33.197Z,14.90
2023-07-26T09:54:34.741Z,15.50
2023-07-26T09:57:04.317Z,15.70
2023-07-26T09:59:32.787Z,15.90
2023-07-26T10:02:07.199Z,16.00
2023-07-26T10:04:39.982Z,16.10
2023-07-26T10:07:12.008Z,16.00
2023-07-26T10:09:44.701Z,16.10
2023-07-26T10:12:12.640Z,16.30
2023-07-26T10:14:40.620Z,16.30
2023-07-26T10:17:08.525Z,16.30
2023-07-26T10:19:39.417Z,16.20
2023-07-26T10:22:08.206Z,16.10
2023-07-26T10:24:37.312Z,15.80
2023-07-26T10:27:05.375Z,15.70
2023-07-26T10:29:32.568Z,15.60
2023-07-26T10:32:07.724Z,15.40
2023-07-26T10:34:35.454Z,15.30
2023-07-26T10:37:20.165Z,15.30
2023-07-26T10:39:47.690Z,15.10
2023-07-26T10:42:28.868Z,15.00
2023-07-26T10:45:01.479Z,15.00
2023-07-26T10:47:28.864Z,14.90
2023-07-26T10:49:56.795Z,14.90
2023-07-26T10:52:36.866Z,14.70
2023-07-26T10:55:27.801Z,14.50
2023-07-26T10:57:58.997Z,14.20
2023-07-26T11:00:36.441Z,13.90
2023-07-26T11:03:03.953Z,13.70
2023-07-26T11:05:31.904Z,13.50
2023-07-26T11:08:01.874Z,13.50
2023-07-26T11:10:33.083Z,13.40
2023-07-26T11:13:28.723Z,13.30
2023-07-26T11:16:11.506Z,13.20
2023-07-26T11:18:43.362Z,13.10
2023-07-26T11:21:16.679Z,12.90
2023-07-26T11:23:44.023Z,12.90
2023-07-26T11:26:10.991Z,12.80
2023-07-26T11:28:39.386Z,12.80
2023-07-26T11:31:08.169Z,12.80
2023-07-26T11:33:42.160Z,12.80
2023-07-26T11:36:09.734Z,12.90
2023-07-26T11:38:42.059Z,13.10
2023-07-26T11:41:09.434Z,13.30
2023-07-26T11:43:39.634Z,13.50
2023-07-26T11:46:06.618Z,13.80
2023-07-26T11:48:35.298Z,14.20
2023-07-26T11:51:04.996Z,14.60
2023-07-26T11:56:08.268Z,15.00
2023-07-26T11:58:35.979Z,15.00
2023-07-26T12:01:04.750Z,15.10
2023-07-26T12:03:32.359Z,15.30
2023-07-26T12:06:02.854Z,15.40
2023-07-26T12:08:31.475Z,15.40
2023-07-26T12:11:04.327Z,15.40
2023-07-26T12:13:34.366Z,15.40
2023-07-26T12:16:03.193Z,15.40
2023-07-26T12:18:30.386Z,15.40
2023-07-26T12:21:08.841Z,15.40
2023-07-26T12:24:02.992Z,15.40
2023-07-26T12:26:34.755Z,15.40
2023-07-26T12:29:07.495Z,15.80
2023-07-26T12:31:38.501Z,16.10
2023-07-26T12:34:13.644Z,16.30
2023-07-26T12:36:45.563Z,16.30
2023-07-26T12:39:14.191Z,16.30
2023-07-26T12:41:44.921Z,16.50
2023-07-26T12:44:13.761Z,16.60
2023-07-26T12:49:12.217Z,17.50
2023-07-26T12:51:41.967Z,18.10
2023-07-26T12:54:09.074Z,18.60
2023-07-26T12:56:36.765Z,18.90
2023-07-26T12:59:08.687Z,19.20
2023-07-26T13:01:38.971Z,19.60
2023-07-26T13:04:07.691Z,19.80
2023-07-26T13:06:36.605Z,19.70
2023-07-26T13:09:04.221Z,19.70
2023-07-26T13:11:31.204Z,19.60
2023-07-26T13:13:58.298Z,19.40
2023-07-26T13:16:30.351Z,19.30
2023-07-26T13:18:58.706Z,19.10
2023-07-26T13:21:25.659Z,18.90
2023-07-26T13:23:52.583Z,18.80
2023-07-26T13:26:19.566Z,18.90
2023-07-26T13:28:46.445Z,19.10
2023-07-26T13:31:13.338Z,19.10
2023-07-26T13:33:43.547Z,19.30
2023-07-26T13:36:24.100Z,19.50
2023-07-26T13:38:51.612Z,19.60
2023-07-26T13:41:19.754Z,19.60
2023-07-26T13:43:47.044Z,19.50
2023-07-26T13:46:32.501Z,19.40
2023-07-26T13:49:00.841Z,19.30
2023-07-26T13:51:28.199Z,19.10
2023-07-26T13:53:55.123Z,18.90
2023-07-26T13:56:22.240Z,18.70
2023-07-26T13:58:49.548Z,18.40
2023-07-26T14:01:17.773Z,18.20
2023-07-26T14:03:45.254Z,18.10
2023-07-26T14:06:12.236Z,18.00
2023-07-26T14:08:39.164Z,17.90
2023-07-26T14:11:06.282Z,17.70
2023-07-26T14:13:33.665Z,17.30
2023-07-26T14:18:30.607Z,16.30
2023-07-26T14:20:57.589Z,15.70
2023-07-26T14:23:24.868Z,15.30
2023-07-26T14:25:52.023Z,15.10
2023-07-26T14:28:18.908Z,15.00
2023-07-26T14:30:47.099Z,15.10
2023-07-26T14:33:15.788Z,15.20
2023-07-26T14:35:42.625Z,15.40
2023-07-26T14:38:09.547Z,15.60
2023-07-26T14:40:36.554Z,15.60
2023-07-26T14:43:03.846Z,15.80
2023-07-26T14:45:31.096Z,15.90
2023-07-26T14:47:58.325Z,16.20
2023-07-26T14:50:25.337Z,16.70
2023-07-26T14:52:52.402Z,17.00
2023-07-26T14:55:19.541Z,17.40
2023-07-26T14:57:47.042Z,17.70
2023-07-26T15:00:14.432Z,18.00
2023-07-26T15:02:41.523Z,18.30
2023-07-26T15:05:09.449Z,18.40
2023-07-26T15:07:37.624Z,18.20
2023-07-26T15:10:06.943Z,18.00
2023-07-26T15:12:33.861Z,17.80
2023-07-26T15:15:00.970Z,17.60
2023-07-26T15:17:27.990Z,17.40
2023-07-26T15:19:54.982Z,17.40
2023-07-26T15:22:21.970Z,17.10
2023-07-26T15:24:48.958Z,16.90
2023-07-26T15:27:16.166Z,16.60
2023-07-26T15:29:43.035Z,16.50
2023-07-26T15:32:10.769Z,16.50
2023-07-26T15:34:42.211Z,16.50
2023-07-26T15:37:09.261Z,16.50
2023-07-26T15:39:36.198Z,16.60
2023-07-26T15:49:36.332Z,17.40
2023-07-26T15:52:05.366Z,17.50
2023-07-26T15:54:32.580Z,17.70
2023-07-26T15:56:59.511Z,17.80
2023-07-26T15:59:26.595Z,18.00
2023-07-26T16:01:53.677Z,18.20
2023-07-26T16:21:52.945Z,18.80
2023-07-26T16:24:20.374Z,18.70
2023-07-26T16:26:47.678Z,18.70
2023-07-26T16:29:14.582Z,18.70
2023-07-26T16:31:41.622Z,18.60
2023-07-26T16:34:08.560Z,18.60
2023-07-26T16:36:35.649Z,18.40
2023-07-26T16:39:02.512Z,18.30
2023-07-26T16:41:29.434Z,18.30
2023-07-26T16:43:57.037Z,18.30
2023-07-26T16:46:25.782Z,18.30
2023-07-26T16:48:56.754Z,18.20
2023-07-26T16:51:23.834Z,18.20
2023-07-26T16:53:51.289Z,18.20
2023-07-26T16:56:18.203Z,18.10
2023-07-26T16:58:45.435Z,18.00
2023-07-26T17:01:12.474Z,17.80
2023-07-26T17:03:39.680Z,17.70
2023-07-26T17:06:06.708Z,17.50
2023-07-26T17:08:33.636Z,17.50
2023-07-26T17:11:01.609Z,17.40
2023-07-26T17:13:28.558Z,17.40
2023-07-26T17:15:55.521Z,17.40
2023-07-26T17:18:22.463Z,17.40
2023-07-26T17:20:49.385Z,17.10
2023-07-26T17:23:16.322Z,16.90
2023-07-26T17:25:43.206Z,16.70
2023-07-26T17:28:10.169Z,16.60
2023-07-26T17:30:37.081Z,16.50
2023-07-26T17:33:06.625Z,16.50
2023-07-26T17:35:33.536Z,16.50
2023-07-26T17:38:00.478Z,16.50
2023-07-26T17:40:34.856Z,16.40
2023-07-26T17:43:02.392Z,16.50
2023-07-26T17:45:29.799Z,16.50
2023-07-26T17:47:56.786Z,16.60
2023-07-26T17:50:25.111Z,16.60
2023-07-26T17:52:52.870Z,16.60
2023-07-26T17:55:20.108Z,16.50
2023-07-26T17:57:58.853Z,16.50
2023-07-26T18:00:30.190Z,16.40
2023-07-26T18:02:57.131Z,16.40
2023-07-26T18:05:24.108Z,16.30
2023-07-26T18:07:51.039Z,16.10
2023-07-26T18:10:17.991Z,16.00
2023-07-26T18:12:45.042Z,16.00
2023-07-26T18:15:12.080Z,15.90
2023-07-26T18:17:38.966Z,15.90
2023-07-26T18:20:06.541Z,15.80
2023-07-26T18:22:33.706Z,15.70
2023-07-26T18:25:00.991Z,15.60
2023-07-26T18:27:27.970Z,15.50
2023-07-26T18:29:55.690Z,15.40
2023-07-26T18:32:22.694Z,15.30
2023-07-26T18:34:49.674Z,15.20
2023-07-26T18:37:16.526Z,15.10
2023-07-26T18:39:43.597Z,15.00
2023-07-26T18:42:10.959Z,14.90
2023-07-26T18:44:38.001Z,14.80
2023-07-26T18:47:08.631Z,14.80
2023-07-26T18:49:36.801Z,14.80
2023-07-26T18:52:04.408Z,14.70
2023-07-26T18:54:31.650Z,14.60
2023-07-26T18:56:58.895Z,14.60
2023-07-26T18:59:25.944Z,14.60
2023-07-26T19:01:52.976Z,14.50
2023-07-26T19:04:21.179Z,14.50
2023-07-26T19:06:49.014Z,14.40
2023-07-26T19:09:16.033Z,14.30
2023-07-26T19:11:42.999Z,14.30
2023-07-26T19:14:09.879Z,14.20
2023-07-26T19:16:37.209Z,14.20
2023-07-26T19:19:04.451Z,14.10
2023-07-26T19:21:31.564Z,14.10
2023-07-26T19:23:58.589Z,14.10
2023-07-26T19:26:25.668Z,14.10
2023-07-26T19:28:53.482Z,14.00
2023-07-26T19:31:20.654Z,14.00
2023-07-26T19:33:47.695Z,13.90
2023-07-26T19:36:14.673Z,13.90
2023-07-26T19:38:41.620Z,13.90
2023-07-26T19:41:11.027Z,13.90
2023-07-26T19:43:38.531Z,13.80
2023-07-26T19:46:11.918Z,13.80
2023-07-26T19:48:39.559Z,13.80
2023-07-26T19:51:07.347Z,13.70
2023-07-26T19:53:34.334Z,13.80
2023-07-26T19:56:01.748Z,13.70
2023-07-26T19:58:28.746Z,13.70
2023-07-26T20:00:56.541Z,13.70
2023-07-26T20:03:25.137Z,13.70
2023-07-26T20:05:55.091Z,13.70
2023-07-26T20:08:24.456Z,13.70
2023-07-26T20:10:52.274Z,13.70
2023-07-26T20:13:19.872Z,13.70
2023-07-26T20:15:47.286Z,13.60
2023-07-26T20:18:14.759Z,13.60
2023-07-26T20:20:43.111Z,13.70
2023-07-26T20:23:10.739Z,13.70
2023-07-26T20:25:39.029Z,13.60
2023-07-26T20:28:07.192Z,13.60
2023-07-26T20:30:36.576Z,13.60
2023-07-26T20:33:03.641Z,13.60
2023-07-26T20:35:30.679Z,13.70
2023-07-26T20:37:57.695Z,13.70
2023-07-26T20:40:24.686Z,13.60
2023-07-26T20:42:51.657Z,13.60
2023-07-26T20:45:18.651Z,13.60
2023-07-26T20:47:45.592Z,13.60
2023-07-26T20:50:12.512Z,13.50
2023-07-26T20:52:39.408Z,13.50
2023-07-26T20:55:06.696Z,13.50
2023-07-26T20:57:33.691Z,13.50
2023-07-26T21:00:00.689Z,13.50
2023-07-26T21:02:27.779Z,13.40
2023-07-26T21:04:54.776Z,13.40
2023-07-26T21:07:21.894Z,13.50
2023-07-26T21:09:48.804Z,13.40
2023-07-26T21:12:15.771Z,13.50
2023-07-26T21:14:43.666Z,13.40
2023-07-26T21:17:12.474Z,13.40
2023-07-26T21:19:39.465Z,13.40
2023-07-26T21:22:06.780Z,13.40
2023-07-26T21:24:33.726Z,13.40
2023-07-26T21:27:00.733Z,13.40
2023-07-26T21:29:27.727Z,13.40
2023-07-26T21:31:54.733Z,13.40
2023-07-26T21:34:22.408Z,13.40
2023-07-26T21:36:49.306Z,13.30
2023-07-26T21:39:16.384Z,13.40
2023-07-26T21:41:43.290Z,13.30
2023-07-26T21:44:10.892Z,13.30
2023-07-26T21:46:38.119Z,13.40
2023-07-26T21:49:05.305Z,13.40
2023-07-26T21:51:32.195Z,13.30
2023-07-26T21:53:59.235Z,13.40
2023-07-26T21:56:27.590Z,13.30
2023-07-26T21:58:54.635Z,13.30
2023-07-26T22:01:21.651Z,13.30
2023-07-26T22:03:48.689Z,13.20
2023-07-26T22:06:15.804Z,13.20
2023-07-26T22:08:42.770Z,13.10
2023-07-26T22:11:09.671Z,13.10
2023-07-26T22:13:36.630Z,13.00
2023-07-26T22:16:03.905Z,12.90
2023-07-26T22:18:32.288Z,12.90
2023-07-26T22:23:32.005Z,12.80
2023-07-26T22:26:12.161Z,12.70
2023-07-26T22:28:41.952Z,12.60
2023-07-26T22:31:08.959Z,12.50
2023-07-26T22:33:35.932Z,12.50
2023-07-26T22:36:06.328Z,12.40
2023-07-26T22:38:33.587Z,12.40
2023-07-26T22:41:02.213Z,12.30
2023-07-26T22:43:29.204Z,12.20
2023-07-26T22:45:56.269Z,12.20
2023-07-26T22:48:23.289Z,12.10
2023-07-26T22:50:50.134Z,12.00
2023-07-26T22:53:17.095Z,12.00
2023-07-26T22:55:44.006Z,11.90
2023-07-26T22:58:11.061Z,11.80
2023-07-26T23:00:38.024Z,11.70
2023-07-26T23:03:05.085Z,11.70
2023-07-26T23:05:32.100Z,11.60
2023-07-26T23:07:58.987Z,11.60
2023-07-26T23:10:25.937Z,11.50
2023-07-26T23:12:52.922Z,11.50
2023-07-26T23:15:19.816Z,11.40
2023-07-26T23:17:46.781Z,11.40
2023-07-26T23:20:13.768Z,11.40
2023-07-26T23:22:40.813Z,11.30
2023-07-26T23:25:08.354Z,11.30
2023-07-26T23:27:35.302Z,11.20
2023-07-26T23:30:02.265Z,11.20
2023-07-26T23:32:29.257Z,11.20
2023-07-26T23:34:56.201Z,11.20
2023-07-26T23:37:23.115Z,11.10
2023-07-26T23:39:50.032Z,11.10
2023-07-26T23:42:16.970Z,11.10
2023-07-26T23:44:43.917Z,11.00
2023-07-26T23:47:10.808Z,11.00
2023-07-26T23:49:37.768Z,11.00
2023-07-26T23:52:04.969Z,10.90
2023-07-26T23:54:31.862Z,10.90
2023-07-26T23:56:58.851Z,10.90
2023-07-26T23:59:25.820Z,10.80
